Time;durP1;ratioP1;P1;durP2;ratioP2;P2;SDS_P1;SDS_P2;PMS_P1;PMS_P2;Temp;Humidity;BMP_temperature;BMP_pressure;BME280_temperature;BME280_humidity;BME280_pressure;Samples;Min_cycle;Max_cycle;Signal;HPM_P1;HPM_P2
2023/04/07 00:01:51;;;;;;;;;;;;;;;16.73;47.58;100632.09;4996716;28;1147;-46
2023/04/07 00:04:16;;;;;;;;;;;;;;;16.06;49.24;100634.88;4996324;28;885;-45
2023/04/07 00:06:42;;;;;;;;;;;;;;;15.74;49.77;100634.00;4996424;28;1167;-42
2023/04/07 00:09:08;;;;;;;;;;;;;;;17.22;46.57;100627.84;5000447;28;1985;-42
2023/04/07 00:11:34;;;;;;;;;;;;;;;16.64;47.75;100628.28;5000495;28;1040;-45
2023/04/07 00:13:59;;;;;;;;;;;;;;;16.04;49.13;100626.94;5000871;28;1052;-44
2023/04/07 00:16:25;;;;;;;;;;;;;;;15.73;49.75;100626.06;5000478;28;1235;-45
2023/04/07 00:18:51;;;;;;;;;;;;;;;15.51;50.35;100627.09;5000895;28;1132;-43
2023/04/07 00:21:16;;;;;;;;;;;;;;;15.58;50.44;100626.84;5000451;28;1171;-46
2023/04/07 00:23:42;;;;;;;;;;;;;;;17.15;46.49;100627.31;5000161;28;1052;-43
2023/04/07 00:26:08;;;;;;;;;;;;;;;16.53;47.69;100627.47;5000577;28;1140;-44
2023/04/07 00:28:34;;;;;;;;;;;;;;;15.96;49.35;100624.72;4999932;28;942;-43
2023/04/07 00:31:00;;;;;;;;;;;;;;;15.62;50.09;100633.41;4999851;28;1991;-46
2023/04/07 00:33:26;;;;;;;;;;;;;;;15.50;50.42;100632.84;5000420;28;1211;-46
2023/04/07 00:35:53;;;;;;;;;;;;;;;17.07;46.89;100626.81;4998727;28;1319;-45
2023/04/07 00:38:19;;;;;;;;;;;;;;;16.61;47.68;100626.91;5000521;28;1020;-47
2023/04/07 00:40:44;;;;;;;;;;;;;;;15.98;49.09;100628.03;4999938;28;1105;-46
2023/04/07 00:43:10;;;;;;;;;;;;;;;15.63;50.04;100618.63;4999856;28;1151;-44
2023/04/07 00:45:36;;;;;;;;;;;;;;;15.50;50.47;100638.31;4997600;28;1065;-43
2023/04/07 00:48:02;;;;;;;;;;;;;;;16.68;47.63;100630.19;4999166;28;1106;-47
2023/04/07 00:50:28;;;;;;;;;;;;;;;16.95;46.82;100634.53;4999995;28;1922;-44
2023/04/07 00:52:55;;;;;;;;;;;;;;;16.08;48.86;100639.00;4999737;28;869;-48
2023/04/07 00:55:21;;;;;;;;;;;;;;;15.71;49.89;100645.53;4999768;28;1025;-45
2023/04/07 00:57:47;;;;;;;;;;;;;;;15.48;50.34;100643.25;4999515;28;1064;-46
2023/04/07 01:00:14;;;;;;;;;;;;;;;15.34;50.73;100643.75;4999859;28;1132;-46
2023/04/07 01:02:59;;;;;;;;;;;;;;;15.21;50.82;100642.34;4999390;28;1079;-46
2023/04/07 01:05:28;;;;;;;;;;;;;;;16.85;47.31;100635.34;5007353;28;1165;-45
2023/04/07 01:08:03;;;;;;;;;;;;;;;17.08;46.40;100635.88;4998173;28;1257;-47
2023/04/07 01:10:43;;;;;;;;;;;;;;;16.07;49.02;100631.91;5014570;28;1921;-47
2023/04/07 01:13:32;;;;;;;;;;;;;;;15.66;50.11;100626.31;4982600;28;1166;-43
2023/04/07 01:16:26;;;;;;;;;;;;;;;15.39;50.57;100637.50;4998302;28;1662;-47
2023/04/07 01:18:56;;;;;;;;;;;;;;;16.60;47.99;100625.25;5013999;28;1323;-49
2023/04/07 01:21:22;;;;;;;;;;;;;;;17.12;46.10;100627.88;4999066;28;1120;-39
2023/04/07 01:23:59;;;;;;;;;;;;;;;16.15;48.48;100630.50;4999742;28;1183;-45
2023/04/07 01:26:25;;;;;;;;;;;;;;;15.71;49.55;100623.59;4998961;28;1136;-43
2023/04/07 01:29:03;;;;;;;;;;;;;;;15.50;50.23;100627.34;4998771;28;901;-46
2023/04/07 01:31:28;;;;;;;;;;;;;;;15.30;50.55;100628.94;4987428;28;1981;-45
2023/04/07 01:33:54;;;;;;;;;;;;;;;16.54;47.88;100640.09;4999188;28;1119;-43
2023/04/07 01:36:20;;;;;;;;;;;;;;;17.43;45.56;100631.31;5030625;28;1075;-41
2023/04/07 01:38:46;;;;;;;;;;;;;;;16.36;47.94;100634.06;5030659;28;1127;-48
2023/04/07 01:41:13;;;;;;;;;;;;;;;15.88;49.34;100634.34;5006334;28;965;-41
2023/04/07 01:43:39;;;;;;;;;;;;;;;15.57;50.17;100628.75;4993379;28;1053;-42
2023/04/07 01:46:04;;;;;;;;;;;;;;;15.47;50.42;100636.13;5030169;28;1257;-43
2023/04/07 01:48:30;;;;;;;;;;;;;;;17.02;46.65;100628.75;4997075;28;2085;-45
2023/04/07 01:50:56;;;;;;;;;;;;;;;17.21;46.00;100623.47;4998917;28;1910;-47
2023/04/07 01:53:22;;;;;;;;;;;;;;;16.29;48.14;100625.28;5000533;28;954;-46
2023/04/07 01:55:47;;;;;;;;;;;;;;;15.82;49.40;100624.47;5030335;28;1020;-43
2023/04/07 01:58:14;;;;;;;;;;;;;;;15.62;49.90;100633.41;4998652;28;1192;-43
2023/04/07 02:00:42;;;;;;;;;;;;;;;15.42;50.36;100630.63;4997522;28;1419;-45
2023/04/07 02:03:19;;;;;;;;;;;;;;;15.48;50.35;100629.56;4982396;28;1328;-47
2023/04/07 02:05:46;;;;;;;;;;;;;;;17.07;46.65;100626.81;4996885;28;895;-43
2023/04/07 02:08:12;;;;;;;;;;;;;;;16.60;47.51;100628.00;4996893;28;1065;-43
2023/04/07 02:10:38;;;;;;;;;;;;;;;15.95;49.00;100636.81;5003415;28;1910;-44
2023/04/07 02:13:04;;;;;;;;;;;;;;;15.67;49.73;100627.13;4994432;28;1312;-43
2023/04/07 02:15:31;;;;;;;;;;;;;;;15.35;50.52;100628.97;5013492;28;1365;-42
2023/04/07 02:17:57;;;;;;;;;;;;;;;15.99;49.20;100635.19;4997760;28;875;-43
2023/04/07 02:20:22;;;;;;;;;;;;;;;17.34;45.95;100624.78;4998615;28;1234;-42
2023/04/07 02:22:48;;;;;;;;;;;;;;;16.42;47.85;100632.13;5030065;28;1152;-47
2023/04/07 02:25:20;;;;;;;;;;;;;;;15.88;49.40;100634.34;4996675;28;1211;-42
2023/04/07 02:27:45;;;;;;;;;;;;;;;15.59;50.10;100642.19;4997526;28;1092;-40
2023/04/07 02:30:11;;;;;;;;;;;;;;;16.14;48.71;100639.00;5012405;28;1906;-41
2023/04/07 02:32:37;;;;;;;;;;;;;;;17.44;45.49;100630.22;5029554;28;1175;-46
2023/04/07 02:35:02;;;;;;;;;;;;;;;16.41;47.80;100647.78;4998160;28;1179;-44
2023/04/07 02:37:28;;;;;;;;;;;;;;;15.89;49.33;100646.13;5029266;28;1184;-45
2023/04/07 02:39:53;;;;;;;;;;;;;;;15.60;50.03;100649.34;4997480;28;1180;-42
2023/04/07 02:42:19;;;;;;;;;;;;;;;15.43;50.36;100648.72;4996316;28;1128;-43
2023/04/07 02:44:45;;;;;;;;;;;;;;;16.90;46.90;100651.03;4997599;28;1139;-45
2023/04/07 02:47:10;;;;;;;;;;;;;;;16.95;46.35;100658.44;4997880;28;1077;-47
2023/04/07 02:49:36;;;;;;;;;;;;;;;16.15;48.54;100659.88;4997242;28;1915;-45
2023/04/07 02:52:01;;;;;;;;;;;;;;;15.77;49.37;100659.22;4997286;28;1013;-43
2023/04/07 02:54:27;;;;;;;;;;;;;;;15.55;49.86;100663.00;4997640;28;1056;-46
2023/04/07 02:56:53;;;;;;;;;;;;;;;15.36;50.30;100662.66;4997639;28;1169;-45
2023/04/07 02:59:20;;;;;;;;;;;;;;;16.29;48.46;100671.13;4996441;28;1143;-46
2023/04/07 03:01:45;;;;;;;;;;;;;;;17.05;46.26;100667.47;4996255;28;1127;-41
2023/04/07 03:04:11;;;;;;;;;;;;;;;16.08;48.69;100660.13;4995802;28;2293;-43
2023/04/07 03:06:36;;;;;;;;;;;;;;;15.69;49.41;100671.56;4996168;28;1701;-44
2023/04/07 03:09:08;;;;;;;;;;;;;;;15.46;50.30;100665.44;4996293;28;1223;-43
2023/04/07 03:11:33;;;;;;;;;;;;;;;16.90;46.72;100668.34;4997306;28;1910;-45
2023/04/07 03:13:59;;;;;;;;;;;;;;;16.98;46.49;100672.44;4996154;28;1143;-45
2023/04/07 03:16:27;;;;;;;;;;;;;;;16.12;48.35;100671.38;5012017;28;1168;-44
2023/04/07 03:18:59;;;;;;;;;;;;;;;15.73;49.29;100667.97;4996249;28;1418;-42
2023/04/07 03:21:27;;;;;;;;;;;;;;;15.50;50.11;100672.06;4995871;28;1139;-42
2023/04/07 03:23:53;;;;;;;;;;;;;;;16.86;46.83;100669.97;4997312;28;1068;-45
2023/04/07 03:26:19;;;;;;;;;;;;;;;16.87;46.45;100668.03;4995706;28;1157;-43
2023/04/07 03:28:44;;;;;;;;;;;;;;;16.07;48.49;100673.03;4995464;28;1151;-42
2023/04/07 03:31:12;;;;;;;;;;;;;;;15.71;49.49;100674.81;4995766;28;1979;-44
2023/04/07 03:33:38;;;;;;;;;;;;;;;15.53;49.67;100684.41;4995890;28;1415;-42
2023/04/07 03:36:04;;;;;;;;;;;;;;;16.54;47.43;100679.34;4997055;28;1137;-43
2023/04/07 03:38:29;;;;;;;;;;;;;;;17.07;46.06;100686.44;4997073;28;1087;-46
2023/04/07 03:40:59;;;;;;;;;;;;;;;16.13;48.19;100687.56;5010911;28;1275;-43
2023/04/07 03:43:25;;;;;;;;;;;;;;;15.76;49.19;100693.22;4996824;28;1080;-47
2023/04/07 03:45:54;;;;;;;;;;;;;;;15.55;49.73;100687.69;4996894;28;1212;-44
2023/04/07 03:48:22;;;;;;;;;;;;;;;16.60;47.53;100694.69;4995674;28;1237;-50
2023/04/07 03:50:57;;;;;;;;;;;;;;;17.23;45.54;100685.25;4995270;28;1977;-47
2023/04/07 03:53:23;;;;;;;;;;;;;;;16.27;48.11;100689.78;4996787;28;1131;-46
2023/04/07 03:55:51;;;;;;;;;;;;;;;15.85;48.87;100699.84;4996054;28;1152;-45
2023/04/07 03:58:41;;;;;;;;;;;;;;;15.62;49.46;100693.72;4997132;28;1306;-46
2023/04/07 04:01:11;;;;;;;;;;;;;;;15.39;49.99;100704.06;4996568;28;1064;-39
2023/04/07 04:03:38;;;;;;;;;;;;;;;15.42;50.34;100707.34;4995389;28;1523;-42
2023/04/07 04:06:16;;;;;;;;;;;;;;;17.13;46.13;100711.97;4995470;28;1187;-45
2023/04/07 04:08:42;;;;;;;;;;;;;;;16.60;47.25;100704.88;4996822;28;1056;-43
2023/04/07 04:11:08;;;;;;;;;;;;;;;15.96;48.87;100719.91;4995705;28;1922;-44
2023/04/07 04:13:42;;;;;;;;;;;;;;;15.67;49.27;100712.94;4994831;28;1171;-41
2023/04/07 04:16:08;;;;;;;;;;;;;;;15.41;50.23;100728.44;4994325;28;1301;-42
2023/04/07 04:18:36;;;;;;;;;;;;;;;15.46;49.93;100725.75;5020205;28;1171;-46
2023/04/07 04:21:02;;;;;;;;;;;;;;;17.00;46.21;100736.16;5000122;28;1450;-49
2023/04/07 04:23:30;;;;;;;;;;;;;;;16.67;46.77;100732.84;5011531;28;1271;-47
2023/04/07 04:25:58;;;;;;;;;;;;;;;15.97;48.64;100736.09;4995013;28;1379;-44
2023/04/07 04:28:25;;;;;;;;;;;;;;;15.68;49.53;100732.94;4984399;28;1196;-47
2023/04/07 04:30:52;;;;;;;;;;;;;;;15.51;49.82;100738.63;4993653;28;1910;-51
2023/04/07 04:33:18;;;;;;;;;;;;;;;15.34;50.28;100736.91;4994783;28;1198;-52
2023/04/07 04:35:53;;;;;;;;;;;;;;;16.99;46.28;100734.50;5011480;28;1473;-52
2023/04/07 04:38:20;;;;;;;;;;;;;;;17.34;45.08;100738.28;4994750;28;1094;-47
2023/04/07 04:40:53;;;;;;;;;;;;;;;16.26;47.63;100754.81;4996250;28;1121;-46
2023/04/07 04:43:24;;;;;;;;;;;;;;;15.89;48.87;100747.56;5010421;28;1007;-47
2023/04/07 04:45:51;;;;;;;;;;;;;;;15.66;49.16;100752.41;5011336;28;1149;-47
2023/04/07 04:48:18;;;;;;;;;;;;;;;15.53;49.52;100752.91;4994779;28;1236;-50
2023/04/07 04:50:46;;;;;;;;;;;;;;;17.13;45.89;100756.75;4994959;28;1910;-48
2023/04/07 04:53:13;;;;;;;;;;;;;;;16.70;46.45;100759.75;4995238;28;1289;-50
2023/04/07 04:55:50;;;;;;;;;;;;;;;16.01;48.43;100759.13;4998656;28;1128;-50
2023/04/07 04:58:20;;;;;;;;;;;;;;;15.71;49.03;100770.78;5013781;28;1305;-48
2023/04/07 05:00:48;;;;;;;;;;;;;;;15.55;49.36;100772.63;4998420;28;1329;-46
2023/04/07 05:03:14;;;;;;;;;;;;;;;15.37;49.90;100771.97;4997440;28;2011;-49
2023/04/07 05:05:47;;;;;;;;;;;;;;;16.98;46.22;100763.06;4998161;28;1336;-47
2023/04/07 05:08:13;;;;;;;;;;;;;;;16.69;46.62;100771.03;4997980;28;1293;-42
2023/04/07 05:10:39;;;;;;;;;;;;;;;17.10;45.80;100766.34;4998246;28;1985;-46
2023/04/07 05:13:09;;;;;;;;;;;;;;;16.12;48.12;100773.69;4997914;28;1293;-43
2023/04/07 05:15:35;;;;;;;;;;;;;;;15.71;48.27;100779.84;4998096;28;1448;-42
2023/04/07 05:18:03;;;;;;;;;;;;;;;16.78;46.84;100766.63;4997438;28;1232;-44
2023/04/07 05:20:29;;;;;;;;;;;;;;;15.78;48.55;100776.88;4998063;28;1226;-44
2023/04/07 05:22:55;;;;;;;;;;;;;;;16.42;47.99;100780.34;4997656;28;1240;-45
2023/04/07 05:25:26;;;;;;;;;;;;;;;16.53;47.17;100773.75;4996736;28;1204;-41
2023/04/07 05:27:56;;;;;;;;;;;;;;;15.81;48.42;100778.25;4997343;28;1114;-46
2023/04/07 05:30:22;;;;;;;;;;;;;;;15.61;47.83;100788.00;4997596;28;1975;-46
2023/04/07 05:32:48;;;;;;;;;;;;;;;15.44;47.55;100788.19;4997817;28;1167;-46
2023/04/07 05:35:22;;;;;;;;;;;;;;;16.62;47.15;100789.69;4995765;28;1383;-45
2023/04/07 05:37:53;;;;;;;;;;;;;;;15.64;48.45;100787.50;4987181;28;1336;-48
2023/04/07 05:40:19;;;;;;;;;;;;;;;16.30;47.81;100791.59;4998824;28;1060;-48
2023/04/07 05:42:45;;;;;;;;;;;;;;;16.22;47.92;100786.63;5013478;28;1130;-50
2023/04/07 05:45:12;;;;;;;;;;;;;;;15.70;48.05;100793.81;4996833;28;1387;-45
2023/04/07 05:47:41;;;;;;;;;;;;;;;15.56;47.48;100797.03;4997354;28;1179;-49
2023/04/07 05:50:11;;;;;;;;;;;;;;;16.62;47.03;100797.94;4997551;28;1973;-45
2023/04/07 05:52:37;;;;;;;;;;;;;;;15.75;48.28;100793.81;4997566;28;1239;-47
2023/04/07 05:55:15;;;;;;;;;;;;;;;15.76;48.29;100797.41;4995333;28;1216;-46
2023/04/07 05:57:41;;;;;;;;;;;;;;;16.38;47.54;100796.53;4997728;28;1272;-47
2023/04/07 06:00:08;;;;;;;;;;;;;;;15.81;48.21;100795.53;4997293;28;1228;-47
2023/04/07 06:02:39;;;;;;;;;;;;;;;15.59;47.47;100795.69;4986036;28;903;-47
2023/04/07 06:05:10;;;;;;;;;;;;;;;16.47;47.69;100790.53;4995644;28;1219;-44
2023/04/07 06:07:38;;;;;;;;;;;;;;;16.19;47.96;100801.69;4996808;28;1354;-42
2023/04/07 06:10:03;;;;;;;;;;;;;;;16.41;47.93;100801.47;4996812;28;1914;-48
2023/04/07 06:12:29;;;;;;;;;;;;;;;17.68;45.31;100800.84;4998401;28;1212;-44
2023/04/07 06:14:55;;;;;;;;;;;;;;;16.31;47.87;100797.88;4989654;28;1211;-43
2023/04/07 06:17:21;;;;;;;;;;;;;;;15.98;47.83;100803.56;4993719;28;1236;-46
2023/04/07 06:19:46;;;;;;;;;;;;;;;16.97;47.07;100802.66;4997936;28;970;-48
2023/04/07 06:22:12;;;;;;;;;;;;;;;16.06;48.11;100804.94;4997176;28;1317;-44
2023/04/07 06:24:38;;;;;;;;;;;;;;;17.27;46.46;100801.78;4996157;28;1225;-46
2023/04/07 06:27:03;;;;;;;;;;;;;;;16.86;46.98;100807.28;4993871;28;1384;-46
2023/04/07 06:29:29;;;;;;;;;;;;;;;16.18;47.68;100804.72;4996367;28;1938;-48
2023/04/07 06:31:55;;;;;;;;;;;;;;;15.95;47.50;100814.22;4997523;28;975;-45
2023/04/07 06:34:21;;;;;;;;;;;;;;;17.10;46.70;100807.56;4997538;28;1137;-48
2023/04/07 06:36:46;;;;;;;;;;;;;;;16.40;47.95;100819.03;4997692;28;1294;-50
2023/04/07 06:39:12;;;;;;;;;;;;;;;16.53;47.87;100814.13;4997108;28;1044;-47
2023/04/07 06:41:37;;;;;;;;;;;;;;;17.52;45.71;100815.75;4998110;28;1432;-44
2023/04/07 06:44:03;;;;;;;;;;;;;;;16.43;47.62;100818.50;4996732;28;957;-46
2023/04/07 06:46:29;;;;;;;;;;;;;;;16.05;47.80;100820.59;4997229;28;1284;-46
2023/04/07 06:48:54;;;;;;;;;;;;;;;16.73;47.67;100825.13;4986108;28;1263;-44
2023/04/07 06:51:20;;;;;;;;;;;;;;;16.60;47.65;100820.16;4997504;28;1899;-49
2023/04/07 06:53:47;;;;;;;;;;;;;;;16.10;47.79;100822.50;4997266;28;1290;-48
2023/04/07 06:56:13;;;;;;;;;;;;;;;15.94;47.47;100818.91;4997391;28;1005;-43
2023/04/07 06:58:38;;;;;;;;;;;;;;;16.76;47.20;100824.59;4997172;28;1134;-45
2023/04/07 07:01:04;;;;;;;;;;;;;;;16.41;47.79;100823.44;4997162;28;1029;-46
2023/04/07 07:03:30;;;;;;;;;;;;;;;16.00;47.81;100833.47;4997239;28;1140;-46
2023/04/07 07:05:56;;;;;;;;;;;;;;;16.16;48.04;100837.06;4997037;28;1139;-46
2023/04/07 07:08:22;;;;;;;;;;;;;;;16.61;47.42;100835.56;4997006;28;1017;-42
2023/04/07 07:10:47;;;;;;;;;;;;;;;15.97;47.81;100831.25;4996839;28;1914;-45
2023/04/07 07:13:13;;;;;;;;;;;;;;;15.85;47.42;100831.47;4997425;28;1255;-43
2023/04/07 07:15:39;;;;;;;;;;;;;;;16.48;47.32;100833.31;4997084;28;1130;-46
2023/04/07 07:18:04;;;;;;;;;;;;;;;16.63;47.20;100840.75;4996739;28;1029;-43
2023/04/07 07:20:30;;;;;;;;;;;;;;;15.94;47.59;100838.09;4996471;28;1184;-43
2023/04/07 07:22:55;;;;;;;;;;;;;;;17.07;46.82;100835.59;4996762;28;999;-46
2023/04/07 07:25:21;;;;;;;;;;;;;;;16.30;47.81;100842.88;4996935;28;1232;-46
2023/04/07 07:27:50;;;;;;;;;;;;;;;15.99;47.36;100843.63;4996979;28;1279;-43
2023/04/07 07:30:16;;;;;;;;;;;;;;;15.79;46.94;100841.59;4995909;28;1911;-45
2023/04/07 07:32:42;;;;;;;;;;;;;;;16.72;47.13;100850.94;4996962;28;1291;-46
2023/04/07 07:35:07;;;;;;;;;;;;;;;16.13;48.39;100856.81;4996966;28;1367;-48
2023/04/07 07:37:33;;;;;;;;;;;;;;;17.97;44.85;100846.16;4989454;28;1286;-47
2023/04/07 07:39:58;;;;;;;;;;;;;;;17.19;46.30;100854.53;4990453;28;1235;-43
2023/04/07 07:42:24;;;;;;;;;;;;;;;16.51;47.40;100852.81;4996794;28;1176;-46
2023/04/07 07:44:49;;;;;;;;;;;;;;;16.05;47.46;100861.72;4996660;28;1181;-44
2023/04/07 07:47:15;;;;;;;;;;;;;;;15.92;46.85;100853.97;4984919;28;1217;-44
2023/04/07 07:49:41;;;;;;;;;;;;;;;16.97;46.54;100860.34;4996184;28;1906;-44
2023/04/07 07:52:06;;;;;;;;;;;;;;;16.17;47.37;100860.66;4996763;28;1020;-42
2023/04/07 07:54:32;;;;;;;;;;;;;;;15.80;47.46;100862.44;4995973;28;1121;-44
2023/04/07 07:56:57;;;;;;;;;;;;;;;15.75;46.79;100862.38;4996589;28;1182;-46
2023/04/07 07:59:23;;;;;;;;;;;;;;;16.90;46.62;100863.34;4996474;28;1112;-46
2023/04/07 08:01:49;;;;;;;;;;;;;;;16.02;47.77;100864.16;4996059;28;1244;-43
2023/04/07 08:04:14;;;;;;;;;;;;;;;17.16;46.53;100870.78;4996507;28;1212;-45
2023/04/07 08:06:40;;;;;;;;;;;;;;;16.66;47.21;100865.78;4984491;28;1052;-43
2023/04/07 08:09:06;;;;;;;;;;;;;;;16.12;47.69;100868.88;4994360;28;1065;-42
2023/04/07 08:11:31;;;;;;;;;;;;;;;16.13;47.81;100862.31;4996613;28;1906;-43
2023/04/07 08:13:57;;;;;;;;;;;;;;;16.81;46.85;100873.19;4983417;28;1232;-41
2023/04/07 08:16:23;;;;;;;;;;;;;;;16.13;47.58;100865.03;4993460;28;1283;-44
2023/04/07 08:18:48;;;;;;;;;;;;;;;16.74;47.44;100865.19;4984543;28;1283;-46
2023/04/07 08:21:14;;;;;;;;;;;;;;;16.21;47.71;100872.75;4996301;28;1038;-49
2023/04/07 08:23:40;;;;;;;;;;;;;;;17.10;46.42;100873.50;4995734;28;1195;-46
2023/04/07 08:26:05;;;;;;;;;;;;;;;17.58;45.38;100861.38;4995962;28;1468;-44
2023/04/07 08:28:31;;;;;;;;;;;;;;;16.51;47.18;100865.72;4997543;28;1160;-42
2023/04/07 08:30:56;;;;;;;;;;;;;;;17.00;46.86;100872.69;4999561;28;1975;-45
2023/04/07 08:33:22;;;;;;;;;;;;;;;16.68;47.10;100860.81;4999849;28;1020;-47
2023/04/07 08:35:47;;;;;;;;;;;;;;;16.28;46.95;100858.78;4999457;28;1117;-46
2023/04/07 08:38:13;;;;;;;;;;;;;;;15.96;47.13;100860.56;4999752;28;1195;-45
2023/04/07 08:40:39;;;;;;;;;;;;;;;15.91;46.43;100863.31;4999050;28;1158;-44
2023/04/07 08:43:07;;;;;;;;;;;;;;;16.64;47.06;100870.69;4998202;28;1010;-47
2023/04/07 08:45:32;;;;;;;;;;;;;;;16.08;47.36;100868.59;4998681;28;1476;-45
2023/04/07 08:47:58;;;;;;;;;;;;;;;15.95;46.63;100864.44;5000107;28;1271;-47
2023/04/07 08:50:25;;;;;;;;;;;;;;;16.97;46.52;100875.97;4999563;28;1914;-48
2023/04/07 08:52:53;;;;;;;;;;;;;;;16.13;47.43;100874.13;4999874;28;1061;-46
2023/04/07 08:55:19;;;;;;;;;;;;;;;15.98;47.50;100877.59;4998054;28;1120;-47
2023/04/07 08:57:45;;;;;;;;;;;;;;;16.75;46.68;100875.09;4999877;28;1060;-44
2023/04/07 09:00:11;;;;;;;;;;;;;;;16.05;47.41;100885.59;4999535;28;1036;-47
2023/04/07 09:02:37;;;;;;;;;;;;;;;17.56;45.41;100883.66;4999746;28;1131;-46
2023/04/07 09:05:03;;;;;;;;;;;;;;;16.60;47.37;100880.56;4999382;28;993;-48
2023/04/07 09:07:30;;;;;;;;;;;;;;;16.16;47.63;100884.56;4998354;28;1159;-44
2023/04/07 09:09:56;;;;;;;;;;;;;;;16.01;47.12;100888.03;4997435;28;1930;-40
2023/04/07 09:12:21;;;;;;;;;;;;;;;15.81;46.55;100886.03;4992614;28;1188;-47
2023/04/07 09:14:47;;;;;;;;;;;;;;;17.00;46.35;100895.50;4993380;28;1354;-43
2023/04/07 09:17:12;;;;;;;;;;;;;;;16.16;47.52;100900.16;4996477;28;1242;-43
2023/04/07 09:19:38;;;;;;;;;;;;;;;15.87;47.30;100906.06;4998850;28;1101;-47
2023/04/07 09:22:03;;;;;;;;;;;;;;;17.22;45.69;100897.13;4998880;28;1001;-49
2023/04/07 09:24:30;;;;;;;;;;;;;;;16.19;47.43;100905.13;4998854;28;1052;-47
2023/04/07 09:27:15;;;;;;;;;;;;;;;16.08;47.59;100905.06;4999227;28;1116;-45
2023/04/07 09:29:42;;;;;;;;;;;;;;;16.64;46.83;100897.34;4998555;28;1914;-44
2023/04/07 09:32:08;;;;;;;;;;;;;;;16.06;47.27;100895.47;4998592;28;1077;-44
2023/04/07 09:34:34;;;;;;;;;;;;;;;16.63;46.99;100901.16;4998198;28;1252;-42
2023/04/07 09:37:00;;;;;;;;;;;;;;;16.21;47.76;100901.00;4998596;28;1185;-41
2023/04/07 09:39:26;;;;;;;;;;;;;;;15.96;46.97;100895.41;4998651;28;1537;-44
2023/04/07 09:41:51;;;;;;;;;;;;;;;15.76;46.65;100905.16;4998885;28;1067;-45
2023/04/07 09:44:17;;;;;;;;;;;;;;;17.08;45.82;100892.22;4995046;28;1164;-43
2023/04/07 09:46:53;;;;;;;;;;;;;;;16.03;47.62;100905.06;4998394;28;1060;-44
2023/04/07 09:49:19;;;;;;;;;;;;;;;17.19;46.18;100895.75;4998717;28;1139;-45
2023/04/07 09:52:06;;;;;;;;;;;;;;;16.76;47.05;100906.16;4992983;28;1895;-41
2023/04/07 09:54:35;;;;;;;;;;;;;;;16.23;47.36;100904.31;4988258;28;1133;-45
2023/04/07 09:57:01;;;;;;;;;;;;;;;16.80;47.11;100900.91;4998307;28;1021;-49
2023/04/07 09:59:27;;;;;;;;;;;;;;;16.37;47.54;100903.84;4998404;28;1150;-44
2023/04/07 10:01:52;;;;;;;;;;;;;;;17.20;46.39;100910.34;4994355;28;1215;-42
2023/04/07 10:04:18;;;;;;;;;;;;;;;17.84;44.74;100902.56;4997000;28;1240;-43
2023/04/07 10:06:44;;;;;;;;;;;;;;;16.66;46.92;100908.84;4998556;28;1095;-46
2023/04/07 10:09:09;;;;;;;;;;;;;;;16.35;46.77;100904.09;4997070;28;1199;-48
2023/04/07 10:11:36;;;;;;;;;;;;;;;16.36;47.25;100916.72;4998195;28;1977;-50
2023/04/07 10:14:02;;;;;;;;;;;;;;;16.73;47.15;100913.00;4986395;28;1046;-45
2023/04/07 10:16:27;;;;;;;;;;;;;;;16.23;46.94;100919.97;4982452;28;1300;-46
2023/04/07 10:18:53;;;;;;;;;;;;;;;16.01;46.62;100922.88;4997115;28;1236;-45
2023/04/07 10:21:19;;;;;;;;;;;;;;;17.00;46.29;100914.72;4997711;28;897;-47
2023/04/07 10:23:53;;;;;;;;;;;;;;;16.10;47.42;100917.72;4997508;28;1041;-43
2023/04/07 10:26:20;;;;;;;;;;;;;;;16.52;47.15;100911.28;4997653;28;1163;-45
2023/04/07 10:28:48;;;;;;;;;;;;;;;16.62;46.90;100916.81;4996446;28;1223;-47
2023/04/07 10:31:14;;;;;;;;;;;;;;;16.45;47.55;100910.72;4996641;28;1981;-44
2023/04/07 10:33:48;;;;;;;;;;;;;;;18.11;44.42;100911.31;4996785;28;1042;-43
2023/04/07 10:36:14;;;;;;;;;;;;;;;16.70;47.06;100912.72;4992662;28;1093;-47
2023/04/07 10:38:41;;;;;;;;;;;;;;;16.30;46.86;100919.72;4992829;28;1228;-46
2023/04/07 10:41:25;;;;;;;;;;;;;;;16.10;46.70;100909.47;4997323;28;1188;-45
2023/04/07 10:43:51;;;;;;;;;;;;;;;16.99;46.37;100913.06;4992591;28;1196;-45
2023/04/07 10:46:17;;;;;;;;;;;;;;;16.71;46.91;100909.69;4996381;28;1240;-48
2023/04/07 10:48:42;;;;;;;;;;;;;;;16.18;47.16;100915.28;4993464;28;1208;-41
2023/04/07 10:51:14;;;;;;;;;;;;;;;15.99;46.72;100914.94;4993273;28;1910;-47
2023/04/07 10:53:59;;;;;;;;;;;;;;;16.83;46.96;100914.94;4996867;28;1156;-40
2023/04/07 10:56:25;;;;;;;;;;;;;;;16.20;47.09;100915.84;4997125;28;1156;-41
2023/04/07 10:59:06;;;;;;;;;;;;;;;17.93;44.94;100906.41;4996812;28;1148;-41
2023/04/07 11:01:33;;;;;;;;;;;;;;;16.65;47.31;100908.03;4983773;28;1147;-44
2023/04/07 11:03:59;;;;;;;;;;;;;;;16.24;47.10;100911.47;5010369;28;1217;-44
2023/04/07 11:06:25;;;;;;;;;;;;;;;16.88;46.92;100903.13;4996846;28;1042;-48
2023/04/07 11:08:51;;;;;;;;;;;;;;;16.65;47.18;100912.69;4996808;28;924;-46
2023/04/07 11:11:33;;;;;;;;;;;;;;;16.20;47.34;100902.13;4997309;28;1926;-45
2023/04/07 11:13:59;;;;;;;;;;;;;;;16.87;46.71;100915.22;4996654;28;1263;-43
2023/04/07 11:16:33;;;;;;;;;;;;;;;16.45;47.14;100917.03;4996491;28;1137;-41
2023/04/07 11:18:59;;;;;;;;;;;;;;;16.07;47.26;100914.41;4997280;28;1097;-46
2023/04/07 11:21:24;;;;;;;;;;;;;;;16.85;46.55;100915.47;4995176;28;1187;-46
2023/04/07 11:23:50;;;;;;;;;;;;;;;16.38;47.69;100908.22;4997377;28;1137;-45
2023/04/07 11:26:15;;;;;;;;;;;;;;;16.10;47.08;100914.97;4996483;28;1477;-43
2023/04/07 11:28:51;;;;;;;;;;;;;;;17.04;46.26;100913.09;4996916;28;1064;-42
2023/04/07 11:31:23;;;;;;;;;;;;;;;16.24;47.61;100913.38;4996577;28;1999;-43
2023/04/07 11:33:53;;;;;;;;;;;;;;;17.61;45.48;100915.81;4983479;28;1208;-46
2023/04/07 11:36:25;;;;;;;;;;;;;;;16.79;47.12;100919.34;4993755;28;1130;-40
2023/04/07 11:38:51;;;;;;;;;;;;;;;16.31;47.16;100910.38;4983897;28;1045;-45
2023/04/07 11:41:17;;;;;;;;;;;;;;;17.13;46.75;100916.09;4995124;28;995;-41
2023/04/07 11:43:42;;;;;;;;;;;;;;;16.51;47.37;100912.38;4995400;28;1005;-40
2023/04/07 11:46:12;;;;;;;;;;;;;;;16.08;47.29;100910.56;4995592;28;971;-45
2023/04/07 11:48:38;;;;;;;;;;;;;;;16.30;47.26;100916.97;4996513;28;987;-44
2023/04/07 11:51:04;;;;;;;;;;;;;;;16.86;47.04;100914.41;4996394;28;1965;-43
2023/04/07 11:53:39;;;;;;;;;;;;;;;16.27;47.44;100903.78;4996702;28;1096;-47
2023/04/07 11:56:10;;;;;;;;;;;;;;;15.95;47.15;100908.31;4996645;28;1089;-40
2023/04/07 11:58:36;;;;;;;;;;;;;;;16.70;47.05;100908.03;4986138;28;1221;-44
2023/04/07 12:01:05;;;;;;;;;;;;;;;16.18;47.71;100908.97;4996730;28;1052;-45
2023/04/07 12:03:31;;;;;;;;;;;;;;;17.21;46.50;100914.75;4999684;28;1207;-42
2023/04/07 12:05:57;;;;;;;;;;;;;;;17.61;45.70;100896.56;5000640;28;1037;-44
2023/04/07 12:08:35;;;;;;;;;;;;;;;16.65;47.37;100905.28;4999791;28;1153;-41
2023/04/07 12:11:04;;;;;;;;;;;;;;;16.22;47.42;100904.59;5000324;28;1902;-42
2023/04/07 12:13:30;;;;;;;;;;;;;;;16.39;47.63;100905.19;4999878;28;1116;-44
2023/04/07 12:15:57;;;;;;;;;;;;;;;16.54;47.52;100898.94;5000471;28;1199;-45
2023/04/07 12:18:24;;;;;;;;;;;;;;;16.30;47.82;100889.53;4999904;28;1128;-45
2023/04/07 12:20:49;;;;;;;;;;;;;;;17.74;45.43;100898.75;4999641;28;1105;-43
2023/04/07 12:23:15;;;;;;;;;;;;;;;16.58;47.38;100902.81;4999810;28;856;-43
2023/04/07 12:25:40;;;;;;;;;;;;;;;16.24;47.12;100902.41;5000116;28;1076;-42
2023/04/07 12:28:06;;;;;;;;;;;;;;;16.95;47.05;100898.22;4999829;28;1097;-45
2023/04/07 12:30:32;;;;;;;;;;;;;;;16.45;47.41;100895.06;5000572;28;1985;-43
2023/04/07 12:32:57;;;;;;;;;;;;;;;16.12;47.18;100890.81;4985241;28;1120;-47
2023/04/07 12:35:23;;;;;;;;;;;;;;;16.96;46.97;100894.38;4991718;28;975;-46
2023/04/07 12:37:50;;;;;;;;;;;;;;;16.37;47.52;100896.44;4996975;28;1014;-46
2023/04/07 12:40:16;;;;;;;;;;;;;;;17.89;45.39;100895.13;5000053;28;1199;-47
2023/04/07 12:42:42;;;;;;;;;;;;;;;17.69;45.71;100892.44;4999506;28;1346;-43
2023/04/07 12:45:07;;;;;;;;;;;;;;;16.82;47.31;100898.75;4999283;28;1228;-49
2023/04/07 12:47:33;;;;;;;;;;;;;;;16.44;47.00;100904.41;4994024;28;1216;-42
2023/04/07 12:49:59;;;;;;;;;;;;;;;16.25;46.76;100890.34;4997380;28;1910;-48